createdAt,value
2023-02-04T00:03:16.543Z,9.33
2023-02-04T00:08:23.732Z,9.07
2023-02-04T00:13:30.839Z,9.83
2023-02-04T00:18:37.909Z,9.40
2023-02-04T00:23:44.762Z,9.70
2023-02-04T00:28:51.733Z,9.93
2023-02-04T00:33:59.864Z,9.00
2023-02-04T00:39:06.792Z,8.57
2023-02-04T00:44:14.639Z,8.73
2023-02-04T00:49:21.656Z,8.87
2023-02-04T00:54:29.808Z,8.63
2023-02-04T00:59:39.524Z,7.90
2023-02-04T01:04:46.861Z,7.30
2023-02-04T01:09:55.797Z,7.27
2023-02-04T01:15:02.789Z,7.77
2023-02-04T01:20:11.807Z,7.07
2023-02-04T01:25:18.783Z,8.30
2023-02-04T01:30:25.736Z,11.30
2023-02-04T01:35:34.276Z,9.83
2023-02-04T01:40:43.747Z,13.47
2023-02-04T01:45:51.713Z,9.20
2023-02-04T01:51:01.581Z,12.90
2023-02-04T01:56:11.486Z,11.83
2023-02-04T02:01:21.528Z,9.90
2023-02-04T02:06:29.543Z,18.47
2023-02-04T02:11:36.822Z,13.17
2023-02-04T02:16:44.294Z,8.97
2023-02-04T02:21:54.543Z,13.97
2023-02-04T02:27:05.222Z,31.47
2023-02-04T02:32:14.473Z,13.57
2023-02-04T02:37:21.546Z,20.27
2023-02-04T02:42:32.407Z,14.47
2023-02-04T02:47:39.351Z,13.20
2023-02-04T02:52:46.741Z,14.87
2023-02-04T02:57:54.784Z,11.13
2023-02-04T03:03:04.691Z,11.53
2023-02-04T03:08:14.618Z,10.77
2023-02-04T03:13:22.209Z,11.63
2023-02-04T03:18:30.526Z,19.90
2023-02-04T03:23:38.421Z,20.37
2023-02-04T03:28:45.721Z,14.07
2023-02-04T03:33:52.759Z,17.03
2023-02-04T03:38:59.662Z,21.57
2023-02-04T03:44:06.771Z,14.40
2023-02-04T03:49:13.862Z,13.77
2023-02-04T03:54:20.731Z,10.87
2023-02-04T03:59:27.838Z,23.27
2023-02-04T04:04:34.771Z,13.63
2023-02-04T04:09:41.652Z,14.67
2023-02-04T04:14:48.715Z,16.10
2023-02-04T04:19:55.812Z,14.57
2023-02-04T04:25:03.244Z,28.77
2023-02-04T04:30:10.723Z,18.50
2023-02-04T04:35:17.807Z,12.73
2023-02-04T04:40:24.844Z,12.13
2023-02-04T04:45:31.826Z,17.73
2023-02-04T04:50:38.808Z,14.60
2023-02-04T04:55:45.719Z,13.03
2023-02-04T05:00:52.561Z,14.93
2023-02-04T05:05:59.618Z,12.23
2023-02-04T05:11:06.870Z,10.00
2023-02-04T05:16:15.413Z,15.27
2023-02-04T05:21:22.458Z,12.90
2023-02-04T05:26:31.152Z,16.13
2023-02-04T05:31:38.087Z,11.70
2023-02-04T05:36:45.115Z,10.03
2023-02-04T05:41:51.978Z,21.03
2023-02-04T05:46:58.982Z,13.20
2023-02-04T05:52:06.685Z,12.03
2023-02-04T05:57:13.672Z,17.03
2023-02-04T06:02:20.549Z,9.63
2023-02-04T06:07:27.404Z,10.27
2023-02-04T06:12:34.340Z,10.73
2023-02-04T06:17:41.519Z,12.13
2023-02-04T06:22:49.924Z,11.67
2023-02-04T06:27:57.114Z,13.73
2023-02-04T06:33:04.392Z,24.93
2023-02-04T06:38:11.394Z,10.93
2023-02-04T06:43:18.433Z,11.03
2023-02-04T06:48:25.464Z,10.27
2023-02-04T06:53:32.353Z,9.60
2023-02-04T06:58:39.600Z,9.37
2023-02-04T07:03:47.087Z,8.93
2023-02-04T07:08:53.965Z,8.67
2023-02-04T07:14:01.001Z,9.93
2023-02-04T07:19:07.913Z,10.90
2023-02-04T07:24:15.139Z,10.33
2023-02-04T07:29:25.623Z,10.77
2023-02-04T07:34:30.844Z,9.73
2023-02-04T07:39:37.788Z,10.73
2023-02-04T07:44:44.858Z,14.77
2023-02-04T07:49:51.625Z,12.03
2023-02-04T07:54:59.870Z,9.23
2023-02-04T08:00:07.468Z,11.00
2023-02-04T08:05:16.706Z,18.03
2023-02-04T08:10:23.722Z,9.67
2023-02-04T08:15:30.637Z,15.47
2023-02-04T08:20:37.785Z,11.57
2023-02-04T08:25:45.767Z,13.47
2023-02-04T08:30:52.738Z,15.90
2023-02-04T08:36:00.486Z,14.70
2023-02-04T08:41:07.735Z,14.80
2023-02-04T08:46:15.063Z,22.40
2023-02-04T08:51:21.989Z,24.17
2023-02-04T08:56:31.580Z,22.70
2023-02-04T09:01:38.851Z,12.53
2023-02-04T09:06:45.978Z,25.00
2023-02-04T09:11:53.012Z,14.03
2023-02-04T09:17:00.198Z,22.80
2023-02-04T09:22:07.095Z,11.13
2023-02-04T09:27:14.130Z,16.40
2023-02-04T09:32:21.171Z,15.50
2023-02-04T09:37:29.529Z,15.10
2023-02-04T09:42:36.556Z,14.10
2023-02-04T09:47:44.875Z,10.63
2023-02-04T09:52:54.943Z,11.30
2023-02-04T09:58:01.909Z,11.20
2023-02-04T10:03:11.724Z,10.30
2023-02-04T10:08:21.657Z,9.40
2023-02-04T10:13:31.560Z,10.73
2023-02-04T10:18:38.870Z,13.80
2023-02-04T10:23:48.952Z,13.83
2023-02-04T10:28:58.687Z,12.27
2023-02-04T10:34:08.836Z,11.80
2023-02-04T10:39:16.834Z,11.50
2023-02-04T10:44:26.765Z,20.10
2023-02-04T10:49:34.738Z,10.47
2023-02-04T10:54:42.688Z,9.77
2023-02-04T10:59:53.291Z,9.83
2023-02-04T11:05:00.561Z,10.00
2023-02-04T11:10:08.012Z,11.27
2023-02-04T11:15:18.086Z,12.33
2023-02-04T11:20:27.869Z,14.63
2023-02-04T11:25:36.638Z,10.20
2023-02-04T11:30:43.858Z,10.33
2023-02-04T11:35:54.297Z,10.53
2023-02-04T11:41:02.332Z,10.20
2023-02-04T11:46:12.158Z,10.60
2023-02-04T11:51:22.001Z,9.00
2023-02-04T11:56:31.108Z,9.50
2023-02-04T12:01:38.111Z,10.20
2023-02-04T12:06:45.643Z,9.20
2023-02-04T12:11:55.492Z,9.90
2023-02-04T12:17:05.064Z,9.60
2023-02-04T12:22:15.106Z,9.87
2023-02-04T12:27:23.439Z,9.10
2023-02-04T12:32:30.610Z,8.93
2023-02-04T12:37:38.245Z,9.17
2023-02-04T12:42:45.651Z,8.97
2023-02-04T12:47:53.054Z,8.83
2023-02-04T12:53:01.026Z,8.20
2023-02-04T12:58:08.005Z,8.17
2023-02-04T13:03:15.246Z,8.70
2023-02-04T13:08:22.450Z,8.53
2023-02-04T13:13:29.329Z,9.40
2023-02-04T13:18:36.676Z,8.63
2023-02-04T13:23:44.096Z,8.53
2023-02-04T13:28:51.253Z,8.30
2023-02-04T13:33:58.141Z,7.77
2023-02-04T13:39:05.189Z,7.50
2023-02-04T13:44:12.124Z,7.10
2023-02-04T13:49:19.118Z,8.03
2023-02-04T13:54:26.455Z,7.73
2023-02-04T13:59:33.498Z,7.17
2023-02-04T14:04:44.085Z,7.53
2023-02-04T14:09:51.095Z,7.17
2023-02-04T14:14:58.174Z,7.23
2023-02-04T14:20:05.808Z,7.30
2023-02-04T14:25:12.866Z,7.13
2023-02-04T14:30:23.451Z,7.17
2023-02-04T14:35:42.284Z,6.67
2023-02-04T14:40:49.623Z,6.97
2023-02-04T14:45:57.457Z,7.57
2023-02-04T14:51:05.611Z,7.20
2023-02-04T14:56:13.424Z,8.57
2023-02-04T15:01:20.735Z,8.00
2023-02-04T15:06:28.058Z,7.07
2023-02-04T15:11:35.090Z,7.80
2023-02-04T15:16:44.853Z,7.53
2023-02-04T15:21:52.543Z,7.90
2023-02-04T15:26:59.860Z,7.63
2023-02-04T15:32:07.901Z,7.47
2023-02-04T15:37:15.170Z,7.90
2023-02-04T15:42:23.282Z,7.53
2023-02-04T15:47:30.424Z,8.17
2023-02-04T15:52:37.923Z,7.40
2023-02-04T15:57:45.406Z,8.53
2023-02-04T16:02:52.870Z,7.57
2023-02-04T16:08:00.357Z,7.57
2023-02-04T16:13:08.908Z,7.70
2023-02-04T16:18:16.252Z,7.30
2023-02-04T16:23:23.418Z,7.77
2023-02-04T16:28:30.559Z,7.83
2023-02-04T16:33:37.979Z,7.33
2023-02-04T16:38:45.069Z,7.20
2023-02-04T16:43:52.144Z,6.93
2023-02-04T16:49:07.160Z,7.53
2023-02-04T16:54:15.810Z,8.73
2023-02-04T16:59:23.213Z,8.17
2023-02-04T17:04:31.803Z,9.30
2023-02-04T17:09:38.731Z,8.93
2023-02-04T17:14:45.573Z,9.00
2023-02-04T17:19:52.604Z,9.07
2023-02-04T17:24:59.658Z,9.23
2023-02-04T17:30:07.089Z,9.70
2023-02-04T17:35:14.735Z,9.03
2023-02-04T17:40:21.817Z,9.30
2023-02-04T17:45:28.919Z,9.57
2023-02-04T17:55:46.222Z,9.93
2023-02-04T18:00:57.267Z,9.80
2023-02-04T18:06:07.519Z,9.50
2023-02-04T18:11:17.415Z,9.47
2023-02-04T18:16:28.480Z,9.77
2023-02-04T18:21:37.257Z,10.33
2023-02-04T18:26:47.583Z,10.77
2023-02-04T18:31:57.553Z,11.53
2023-02-04T18:37:07.767Z,10.07
2023-02-04T18:42:17.795Z,10.23
2023-02-04T18:47:28.412Z,10.63
2023-02-04T18:52:37.927Z,10.80
2023-02-04T18:57:45.109Z,12.10
2023-02-04T19:02:55.088Z,10.40
2023-02-04T19:08:05.659Z,12.80
2023-02-04T19:13:15.985Z,10.53
2023-02-04T19:18:26.677Z,10.97
2023-02-04T19:23:36.539Z,12.30
2023-02-04T19:28:44.981Z,11.57
2023-02-04T19:33:54.024Z,10.90
2023-02-04T19:39:04.134Z,12.03
2023-02-04T19:44:13.763Z,13.43
2023-02-04T19:49:24.062Z,10.57
2023-02-04T19:54:34.157Z,11.10
2023-02-04T19:59:42.338Z,11.50
2023-02-04T20:04:52.618Z,11.73
2023-02-04T20:10:01.428Z,11.27
2023-02-04T20:15:11.560Z,11.17
2023-02-04T20:20:21.754Z,11.40
2023-02-04T20:25:31.892Z,11.10
2023-02-04T20:30:39.573Z,12.43
2023-02-04T20:35:46.052Z,13.07
2023-02-04T20:40:53.550Z,12.57
2023-02-04T20:46:04.978Z,12.93
2023-02-04T20:51:15.032Z,14.00
2023-02-04T20:56:25.683Z,26.27
2023-02-04T21:01:35.460Z,18.23
2023-02-04T21:06:42.788Z,23.10
2023-02-04T21:11:50.322Z,45.53
2023-02-04T21:16:58.624Z,22.63
2023-02-04T21:22:05.754Z,25.87
2023-02-04T21:27:13.013Z,35.67
2023-02-04T21:32:21.117Z,47.00
2023-02-04T21:37:29.011Z,46.10
2023-02-04T21:42:36.162Z,54.53
2023-02-04T21:47:44.941Z,16.40
2023-02-04T21:52:52.004Z,66.77
2023-02-04T21:57:58.951Z,26.13
2023-02-04T22:03:09.365Z,41.57
2023-02-04T22:08:16.639Z,41.93
2023-02-04T22:13:25.447Z,35.17
2023-02-04T22:18:32.790Z,52.93
2023-02-04T22:23:40.684Z,58.97
2023-02-04T22:28:47.634Z,58.80
2023-02-04T22:33:54.521Z,32.20
2023-02-04T22:39:01.893Z,39.33
2023-02-04T22:44:09.278Z,34.07
2023-02-04T22:49:16.416Z,39.23
2023-02-04T22:54:23.671Z,61.47
2023-02-04T22:59:31.540Z,65.53
2023-02-04T23:04:39.098Z,43.53
2023-02-04T23:09:46.468Z,42.70
2023-02-04T23:14:53.694Z,53.87
2023-02-04T23:20:00.924Z,50.20
2023-02-04T23:25:08.691Z,31.00
2023-02-04T23:30:17.763Z,54.03
2023-02-04T23:35:24.934Z,61.70
2023-02-04T23:40:32.674Z,61.67
2023-02-04T23:45:40.243Z,81.93
2023-02-04T23:50:49.253Z,65.40
2023-02-04T23:55:56.368Z,42.10
